createdAt,value
2023-02-14T00:00:48.721Z,78.50
2023-02-14T00:03:15.846Z,78.40
2023-02-14T00:05:42.488Z,78.40
2023-02-14T00:08:09.104Z,78.40
2023-02-14T00:10:35.881Z,78.60
2023-02-14T00:13:02.546Z,78.60
2023-02-14T00:15:29.206Z,78.70
2023-02-14T00:17:59.883Z,78.70
2023-02-14T00:20:27.859Z,78.70
2023-02-14T00:22:54.811Z,78.90
2023-02-14T00:25:21.490Z,78.90
2023-02-14T00:27:48.156Z,78.90
2023-02-14T00:30:14.893Z,79.00
2023-02-14T00:32:42.814Z,79.10
2023-02-14T00:35:10.789Z,79.10
2023-02-14T00:37:37.784Z,79.10
2023-02-14T00:40:06.082Z,79.10
2023-02-14T00:42:32.725Z,79.10
2023-02-14T00:44:59.354Z,79.00
2023-02-14T00:47:26.105Z,79.90
2023-02-14T00:49:52.765Z,79.30
2023-02-14T00:52:19.442Z,79.30
2023-02-14T00:54:46.039Z,79.30
2023-02-14T00:57:12.606Z,79.30
2023-02-14T00:59:39.338Z,79.40
2023-02-14T01:02:06.261Z,79.30
2023-02-14T01:04:32.984Z,79.20
2023-02-14T01:06:59.615Z,79.10
2023-02-14T01:09:26.255Z,79.10
2023-02-14T01:11:52.963Z,79.10
2023-02-14T01:14:19.613Z,79.10
2023-02-14T01:16:46.402Z,79.10
2023-02-14T01:19:13.332Z,79.20
2023-02-14T01:21:39.956Z,79.20
2023-02-14T01:24:07.874Z,79.10
2023-02-14T01:26:35.265Z,79.10
2023-02-14T01:29:02.971Z,79.20
2023-02-14T01:31:32.081Z,79.20
2023-02-14T01:33:59.828Z,79.20
2023-02-14T01:36:32.418Z,79.30
2023-02-14T01:39:02.337Z,79.30
2023-02-14T01:41:32.371Z,79.30
2023-02-14T01:44:27.013Z,79.40
2023-02-14T01:46:54.457Z,79.40
2023-02-14T01:49:35.447Z,79.40
2023-02-14T01:52:12.557Z,79.40
2023-02-14T01:54:43.411Z,80.10
2023-02-14T01:57:14.180Z,79.20
2023-02-14T01:59:47.410Z,79.40
2023-02-14T02:02:14.097Z,79.30
2023-02-14T02:04:45.608Z,79.40
2023-02-14T02:07:20.849Z,79.30
2023-02-14T02:09:53.272Z,79.40
2023-02-14T02:12:20.383Z,79.40
2023-02-14T02:14:48.593Z,79.40
2023-02-14T02:17:34.587Z,79.50
2023-02-14T02:20:10.158Z,79.50
2023-02-14T02:23:13.572Z,79.50
2023-02-14T02:26:07.599Z,79.50
2023-02-14T02:29:11.697Z,79.50
2023-02-14T02:31:47.373Z,79.50
2023-02-14T02:34:55.031Z,79.60
2023-02-14T02:37:36.366Z,79.50
2023-02-14T02:40:28.496Z,79.60
2023-02-14T02:43:15.155Z,79.60
2023-02-14T02:46:16.860Z,79.50
2023-02-14T02:49:37.579Z,79.40
2023-02-14T02:52:29.571Z,79.50
2023-02-14T02:55:06.583Z,79.60
2023-02-14T02:57:37.543Z,79.50
2023-02-14T03:00:07.605Z,79.50
2023-02-14T03:03:10.002Z,79.70
2023-02-14T03:05:37.681Z,79.80
2023-02-14T03:08:05.744Z,80.00
2023-02-14T03:10:36.161Z,80.00
2023-02-14T03:13:24.575Z,80.30
2023-02-14T03:16:16.378Z,80.50
2023-02-14T03:19:28.553Z,80.50
2023-02-14T03:22:13.634Z,80.40
2023-02-14T03:24:45.997Z,80.40
2023-02-14T03:27:24.959Z,80.50
2023-02-14T03:30:09.835Z,80.60
2023-02-14T03:32:45.475Z,80.70
2023-02-14T03:35:30.766Z,80.80
2023-02-14T03:38:11.392Z,80.70
2023-02-14T03:40:54.656Z,80.70
2023-02-14T03:43:39.107Z,80.50
2023-02-14T03:46:20.920Z,80.50
2023-02-14T03:48:50.340Z,80.60
2023-02-14T03:51:19.960Z,80.50
2023-02-14T03:53:50.891Z,80.50
2023-02-14T03:56:34.573Z,80.40
2023-02-14T03:59:09.124Z,80.50
2023-02-14T04:01:58.323Z,80.50
2023-02-14T04:04:28.588Z,80.40
2023-02-14T04:06:55.441Z,80.40
2023-02-14T04:09:22.135Z,80.40
2023-02-14T04:11:50.384Z,80.50
2023-02-14T04:14:17.842Z,80.50
2023-02-14T04:17:03.065Z,80.50
2023-02-14T04:19:29.670Z,80.60
2023-02-14T04:21:56.295Z,80.60
2023-02-14T04:24:22.861Z,80.50
2023-02-14T04:27:10.123Z,80.40
2023-02-14T04:29:50.423Z,80.40
2023-02-14T04:32:20.372Z,80.50
2023-02-14T04:34:47.364Z,80.40
2023-02-14T04:37:16.164Z,80.50
2023-02-14T04:39:42.812Z,80.50
2023-02-14T04:42:09.688Z,80.50
2023-02-14T04:44:38.152Z,80.50
2023-02-14T04:47:05.327Z,80.50
2023-02-14T04:49:32.294Z,80.40
2023-02-14T04:51:58.968Z,80.40
2023-02-14T04:54:25.597Z,80.70
2023-02-14T04:56:52.249Z,81.00
2023-02-14T04:59:18.913Z,80.90
2023-02-14T05:01:45.524Z,81.00
2023-02-14T05:04:12.168Z,81.00
2023-02-14T05:06:38.825Z,80.90
2023-02-14T05:09:05.739Z,81.00
2023-02-14T05:11:32.772Z,80.80
2023-02-14T05:13:59.384Z,80.90
2023-02-14T05:16:26.218Z,80.90
2023-02-14T05:18:52.902Z,81.00
2023-02-14T05:21:19.489Z,80.90
2023-02-14T05:23:46.491Z,80.80
2023-02-14T05:26:13.217Z,80.90
2023-02-14T05:28:40.979Z,81.00
2023-02-14T05:31:08.749Z,80.90
2023-02-14T05:33:35.481Z,80.90
2023-02-14T05:36:02.744Z,80.90
2023-02-14T05:38:30.681Z,80.80
2023-02-14T05:40:57.415Z,80.80
2023-02-14T05:43:24.204Z,81.50
2023-02-14T05:45:50.858Z,80.70
2023-02-14T05:48:17.899Z,80.70
2023-02-14T05:50:45.478Z,80.60
2023-02-14T05:53:13.216Z,80.60
2023-02-14T05:55:40.122Z,80.70
2023-02-14T05:58:07.384Z,80.70
2023-02-14T06:00:34.392Z,80.80
2023-02-14T06:03:01.165Z,80.70
2023-02-14T06:05:27.810Z,80.70
2023-02-14T06:07:54.536Z,80.60
2023-02-14T06:10:23.029Z,80.60
2023-02-14T06:12:51.680Z,80.50
2023-02-14T06:15:18.936Z,80.50
2023-02-14T06:17:47.087Z,80.60
2023-02-14T06:20:13.817Z,80.60
2023-02-14T06:22:40.408Z,80.60
2023-02-14T06:25:07.583Z,80.40
2023-02-14T06:27:34.286Z,80.50
2023-02-14T06:30:00.956Z,80.60
2023-02-14T06:32:27.683Z,80.60
2023-02-14T06:34:54.333Z,80.60
2023-02-14T06:37:21.070Z,80.60
2023-02-14T06:39:47.721Z,80.60
2023-02-14T06:42:14.345Z,80.70
2023-02-14T06:44:41.020Z,80.70
2023-02-14T06:47:08.516Z,80.80
2023-02-14T06:49:35.155Z,80.80
2023-02-14T06:52:02.005Z,80.80
2023-02-14T06:54:28.622Z,80.80
2023-02-14T06:56:55.293Z,80.80
2023-02-14T06:59:22.040Z,80.80
2023-02-14T07:01:48.686Z,80.80
2023-02-14T07:04:15.714Z,80.70
2023-02-14T07:06:42.298Z,80.70
2023-02-14T07:09:08.929Z,80.70
2023-02-14T07:11:35.618Z,80.70
2023-02-14T07:14:02.204Z,80.70
2023-02-14T07:16:28.839Z,80.80
2023-02-14T07:18:55.411Z,80.80
2023-02-14T07:21:22.015Z,80.70
2023-02-14T07:23:49.997Z,80.70
2023-02-14T07:26:18.102Z,80.70
2023-02-14T07:28:51.735Z,81.50
2023-02-14T07:31:19.967Z,80.90
2023-02-14T07:33:46.760Z,80.80
2023-02-14T07:36:13.405Z,80.90
2023-02-14T07:38:40.060Z,80.90
2023-02-14T07:41:06.906Z,80.90
2023-02-14T07:43:34.480Z,81.00
2023-02-14T07:46:02.782Z,81.10
2023-02-14T07:48:32.492Z,81.20
2023-02-14T07:51:00.693Z,81.30
2023-02-14T07:53:27.579Z,81.30
2023-02-14T07:55:54.292Z,81.30
2023-02-14T07:58:20.952Z,81.40
2023-02-14T08:00:47.662Z,81.30
2023-02-14T08:03:15.144Z,81.30
2023-02-14T08:05:41.869Z,81.40
2023-02-14T08:08:08.689Z,81.50
2023-02-14T08:10:35.332Z,81.50
2023-02-14T08:13:03.427Z,81.50
2023-02-14T08:15:53.002Z,81.60
2023-02-14T08:18:23.056Z,81.60
2023-02-14T08:20:50.991Z,81.70
2023-02-14T08:23:18.892Z,81.70
2023-02-14T08:25:46.202Z,82.60
2023-02-14T08:28:13.744Z,82.00
2023-02-14T08:30:40.926Z,82.10
2023-02-14T08:33:07.666Z,82.20
2023-02-14T08:35:34.920Z,82.20
2023-02-14T08:38:01.697Z,81.80
2023-02-14T08:40:28.582Z,81.40
2023-02-14T08:42:55.348Z,81.20
2023-02-14T08:45:22.344Z,81.00
2023-02-14T08:47:48.957Z,81.20
2023-02-14T08:50:17.352Z,81.50
2023-02-14T08:52:44.441Z,82.10
2023-02-14T08:55:12.672Z,81.90
2023-02-14T08:57:39.770Z,82.20
2023-02-14T09:00:07.447Z,82.50
2023-02-14T09:02:34.409Z,82.50
2023-02-14T09:05:01.080Z,82.70
2023-02-14T09:07:27.905Z,81.50
2023-02-14T09:09:54.565Z,80.50
2023-02-14T09:12:21.310Z,80.00
2023-02-14T09:14:47.986Z,80.40
2023-02-14T09:17:16.019Z,80.40
2023-02-14T09:19:42.901Z,79.20
2023-02-14T09:22:11.196Z,77.10
2023-02-14T09:24:38.985Z,75.50
2023-02-14T09:27:06.494Z,74.40
2023-02-14T09:29:33.612Z,73.60
2023-02-14T09:32:01.911Z,73.30
2023-02-14T09:34:29.352Z,72.80
2023-02-14T09:37:14.775Z,72.70
2023-02-14T09:39:41.422Z,72.50
2023-02-14T09:42:32.587Z,71.50
2023-02-14T09:45:26.832Z,70.30
2023-02-14T09:48:03.877Z,69.20
2023-02-14T09:50:40.231Z,68.40
2023-02-14T09:53:19.875Z,66.70
2023-02-14T09:55:53.920Z,65.00
2023-02-14T09:58:29.088Z,64.20
2023-02-14T10:01:12.674Z,63.20
2023-02-14T10:04:07.427Z,62.60
2023-02-14T10:07:09.324Z,60.30
2023-02-14T10:09:48.042Z,57.00
2023-02-14T10:12:31.744Z,56.60
2023-02-14T10:15:02.138Z,54.70
2023-02-14T10:17:44.944Z,53.30
2023-02-14T10:20:22.029Z,52.20
2023-02-14T10:23:14.508Z,51.30
2023-02-14T10:25:48.762Z,51.00
2023-02-14T10:28:22.000Z,50.80
2023-02-14T10:31:14.848Z,50.50
2023-02-14T10:33:49.344Z,49.80
2023-02-14T10:36:29.497Z,50.70
2023-02-14T10:39:32.005Z,50.00
2023-02-14T10:42:18.587Z,49.80
2023-02-14T10:44:53.004Z,50.10
2023-02-14T10:47:25.565Z,49.20
2023-02-14T10:50:18.706Z,47.80
2023-02-14T10:52:48.283Z,47.80
2023-02-14T10:55:31.545Z,47.80
2023-02-14T10:58:01.422Z,48.20
2023-02-14T11:00:34.331Z,49.00
2023-02-14T11:03:06.246Z,49.40
2023-02-14T11:05:48.444Z,49.20
2023-02-14T11:08:23.907Z,48.60
2023-02-14T11:10:51.458Z,47.80
2023-02-14T11:13:28.711Z,47.40
2023-02-14T11:15:59.969Z,46.90
2023-02-14T11:18:32.748Z,47.70
2023-02-14T11:21:07.254Z,47.30
2023-02-14T11:23:36.737Z,48.50
2023-02-14T11:26:07.397Z,48.80
2023-02-14T11:28:34.860Z,49.30
2023-02-14T11:31:02.405Z,49.20
2023-02-14T11:33:40.402Z,49.20
2023-02-14T11:36:16.717Z,49.40
2023-02-14T11:38:45.202Z,49.40
2023-02-14T11:41:14.896Z,49.40
2023-02-14T11:43:43.996Z,50.30
2023-02-14T11:46:52.188Z,52.00
2023-02-14T11:49:32.584Z,52.10
2023-02-14T11:52:10.207Z,52.00
2023-02-14T11:54:40.214Z,51.10
2023-02-14T11:57:32.478Z,50.60
2023-02-14T12:00:02.359Z,50.60
2023-02-14T12:02:36.331Z,50.60
2023-02-14T12:05:31.389Z,50.50
2023-02-14T12:08:02.125Z,49.60
2023-02-14T12:10:35.167Z,49.80
2023-02-14T12:13:10.176Z,49.20
2023-02-14T12:15:52.098Z,49.00
2023-02-14T12:18:43.990Z,48.00
2023-02-14T12:21:37.005Z,47.30
2023-02-14T12:24:07.365Z,47.60
2023-02-14T12:26:57.033Z,48.20
2023-02-14T12:29:36.838Z,47.30
2023-02-14T12:32:22.605Z,47.40
2023-02-14T12:34:50.396Z,47.70
2023-02-14T12:37:26.677Z,47.90
2023-02-14T12:40:16.190Z,46.90
2023-02-14T12:42:48.536Z,46.90
2023-02-14T12:45:33.700Z,46.80
2023-02-14T12:48:27.410Z,47.20
2023-02-14T12:51:30.398Z,46.50
2023-02-14T12:54:15.902Z,46.90
2023-02-14T12:57:07.767Z,46.70
2023-02-14T12:59:41.642Z,46.60
2023-02-14T13:02:57.407Z,46.50
2023-02-14T13:05:37.924Z,47.70
2023-02-14T13:08:48.009Z,47.00
2023-02-14T13:11:37.218Z,47.40
2023-02-14T13:14:09.582Z,48.00
2023-02-14T13:16:54.513Z,48.30
2023-02-14T13:19:29.948Z,48.10
2023-02-14T13:21:59.785Z,48.90
2023-02-14T13:24:34.787Z,48.80
2023-02-14T13:27:06.911Z,48.80
2023-02-14T13:30:00.653Z,49.20
2023-02-14T13:32:33.035Z,49.20
2023-02-14T13:35:00.555Z,49.50
2023-02-14T13:37:28.275Z,50.20
2023-02-14T13:39:59.123Z,50.60
2023-02-14T13:42:54.189Z,50.70
2023-02-14T13:45:40.772Z,50.90
2023-02-14T13:48:23.459Z,51.30
2023-02-14T13:51:03.785Z,51.70
2023-02-14T13:53:38.409Z,52.20
2023-02-14T13:56:16.902Z,52.20
2023-02-14T13:58:52.073Z,52.70
2023-02-14T14:01:33.985Z,52.70
2023-02-14T14:04:03.522Z,53.00
2023-02-14T14:06:30.423Z,53.20
2023-02-14T14:08:57.343Z,53.80
2023-02-14T14:11:23.960Z,54.00
2023-02-14T14:13:50.505Z,53.90
2023-02-14T14:16:20.531Z,54.50
2023-02-14T14:18:47.565Z,54.40
2023-02-14T14:21:29.178Z,54.80
2023-02-14T14:24:22.702Z,54.90
2023-02-14T14:27:06.572Z,55.10
2023-02-14T14:29:46.765Z,55.20
2023-02-14T14:32:37.891Z,55.70
2023-02-14T14:35:06.384Z,55.70
2023-02-14T14:37:45.616Z,55.80
2023-02-14T14:40:38.521Z,55.80
2023-02-14T14:43:23.191Z,55.90
2023-02-14T14:45:52.694Z,55.80
2023-02-14T14:48:27.459Z,55.80
2023-02-14T14:50:54.825Z,55.80
2023-02-14T14:53:29.066Z,55.90
2023-02-14T14:55:56.746Z,55.90
2023-02-14T14:58:42.123Z,55.80
2023-02-14T15:01:21.358Z,55.90
2023-02-14T15:03:48.272Z,56.30
2023-02-14T15:06:20.678Z,56.20
2023-02-14T15:08:49.121Z,56.20
2023-02-14T15:11:39.553Z,56.30
2023-02-14T15:14:13.275Z,56.50
2023-02-14T15:16:57.496Z,56.80
2023-02-14T15:19:37.196Z,56.70
2023-02-14T15:22:18.170Z,56.90
2023-02-14T15:24:45.265Z,57.00
2023-02-14T15:27:16.234Z,57.10
2023-02-14T15:29:52.334Z,57.30
2023-02-14T15:32:20.222Z,57.20
2023-02-14T15:34:47.267Z,57.00
2023-02-14T15:37:14.378Z,57.00
2023-02-14T15:39:46.661Z,57.10
2023-02-14T15:42:32.612Z,57.30
2023-02-14T15:45:26.006Z,57.40
2023-02-14T15:47:55.631Z,57.50
2023-02-14T15:50:29.592Z,57.80
2023-02-14T15:53:20.192Z,57.90
2023-02-14T15:55:49.648Z,58.20
2023-02-14T15:58:24.868Z,58.20
2023-02-14T16:00:53.385Z,58.30
2023-02-14T16:03:26.289Z,58.40
2023-02-14T16:05:54.727Z,58.60
2023-02-14T16:08:37.327Z,58.60
2023-02-14T16:11:14.591Z,58.60
2023-02-14T16:13:44.786Z,58.90
2023-02-14T16:16:13.764Z,60.00
2023-02-14T16:18:49.421Z,59.20
2023-02-14T16:21:18.079Z,59.50
2023-02-14T16:24:07.682Z,59.90
2023-02-14T16:26:38.066Z,60.20
2023-02-14T16:29:16.593Z,60.20
2023-02-14T16:34:37.509Z,60.40
2023-02-14T16:37:23.413Z,60.40
2023-02-14T16:39:52.918Z,60.60
2023-02-14T16:42:20.009Z,60.70
2023-02-14T16:44:46.999Z,60.90
2023-02-14T16:47:15.710Z,61.10
2023-02-14T16:49:42.403Z,61.20
2023-02-14T16:52:23.417Z,61.40
2023-02-14T16:54:50.303Z,61.60
2023-02-14T16:57:20.785Z,61.70
2023-02-14T16:59:47.546Z,61.70
2023-02-14T17:02:14.221Z,62.00
2023-02-14T17:04:41.063Z,62.20
2023-02-14T17:07:08.163Z,62.30
2023-02-14T17:09:41.284Z,62.50
2023-02-14T17:12:14.692Z,62.70
2023-02-14T17:14:44.035Z,62.80
2023-02-14T17:17:11.398Z,63.00
2023-02-14T17:19:38.195Z,63.10
2023-02-14T17:22:05.041Z,63.20
2023-02-14T17:24:32.261Z,63.30
2023-02-14T17:26:58.862Z,63.50
2023-02-14T17:29:25.528Z,63.60
2023-02-14T17:31:52.262Z,63.80
2023-02-14T17:34:19.159Z,63.90
2023-02-14T17:36:45.905Z,64.10
2023-02-14T17:39:12.561Z,64.40
2023-02-14T17:41:39.691Z,64.60
2023-02-14T17:44:07.264Z,64.80
2023-02-14T17:46:34.011Z,65.00
2023-02-14T17:49:02.593Z,65.10
2023-02-14T17:51:29.526Z,65.40
2023-02-14T17:53:58.805Z,66.20
2023-02-14T17:56:26.327Z,65.60
2023-02-14T17:58:54.991Z,65.80
2023-02-14T18:01:26.778Z,65.80
2023-02-14T18:03:54.261Z,66.00
2023-02-14T18:06:21.597Z,66.00
2023-02-14T18:08:50.420Z,66.10
2023-02-14T18:11:18.544Z,66.20
2023-02-14T18:13:45.236Z,66.30
2023-02-14T18:16:15.023Z,66.50
2023-02-14T18:18:42.185Z,66.70
2023-02-14T18:21:11.451Z,66.70
2023-02-14T18:23:38.496Z,66.90
2023-02-14T18:26:08.403Z,67.00
2023-02-14T18:28:36.090Z,67.10
2023-02-14T18:31:05.408Z,67.10
2023-02-14T18:33:33.240Z,67.20
2023-02-14T18:36:07.756Z,67.40
2023-02-14T18:38:35.340Z,67.50
2023-02-14T18:41:06.884Z,67.60
2023-02-14T18:43:33.643Z,67.90
2023-02-14T18:46:12.373Z,67.90
2023-02-14T18:48:40.124Z,68.30
2023-02-14T18:51:09.554Z,68.50
2023-02-14T18:53:40.753Z,68.70
2023-02-14T18:56:15.356Z,69.80
2023-02-14T18:58:46.070Z,69.20
2023-02-14T19:01:18.589Z,69.30
2023-02-14T19:03:45.589Z,69.20
2023-02-14T19:06:13.157Z,69.20
2023-02-14T19:08:40.587Z,69.40
2023-02-14T19:11:15.220Z,69.40
2023-02-14T19:13:53.563Z,69.40
2023-02-14T19:16:27.100Z,69.30
2023-02-14T19:18:54.425Z,69.50
2023-02-14T19:21:23.888Z,69.70
2023-02-14T19:23:53.115Z,70.00
2023-02-14T19:26:22.247Z,70.00
2023-02-14T19:28:53.644Z,70.10
2023-02-14T19:31:20.473Z,70.30
2023-02-14T19:33:48.059Z,70.20
2023-02-14T19:36:17.189Z,70.50
2023-02-14T19:38:46.450Z,70.60
2023-02-14T19:41:18.677Z,70.70
2023-02-14T19:43:46.259Z,70.80
2023-02-14T19:46:18.013Z,70.90
2023-02-14T19:48:44.868Z,71.00
2023-02-14T19:51:29.414Z,71.20
2023-02-14T19:53:57.963Z,71.20
2023-02-14T19:56:27.192Z,71.20
2023-02-14T19:58:55.958Z,71.40
2023-02-14T20:01:34.209Z,71.50
2023-02-14T20:04:01.071Z,71.70
2023-02-14T20:06:29.336Z,71.90
2023-02-14T20:08:56.191Z,72.20
2023-02-14T20:11:31.020Z,72.30
2023-02-14T20:13:58.489Z,72.30
2023-02-14T20:16:26.789Z,72.40
2023-02-14T20:18:54.018Z,72.50
2023-02-14T20:21:25.364Z,72.60
2023-02-14T20:23:52.219Z,72.60
2023-02-14T20:26:19.505Z,72.80
2023-02-14T20:28:46.298Z,73.10
2023-02-14T20:31:15.127Z,73.00
2023-02-14T20:33:41.891Z,73.20
2023-02-14T20:36:09.632Z,73.40
2023-02-14T20:38:36.294Z,73.30
2023-02-14T20:41:07.340Z,73.50
2023-02-14T20:43:34.179Z,73.50
2023-02-14T20:46:01.962Z,73.50
2023-02-14T20:48:29.527Z,73.60
2023-02-14T20:50:56.254Z,73.50
2023-02-14T20:53:23.411Z,73.50
2023-02-14T20:55:51.749Z,73.50
2023-02-14T20:58:19.732Z,73.60
2023-02-14T21:00:46.454Z,73.80
2023-02-14T21:03:13.022Z,73.90
2023-02-14T21:05:40.214Z,74.00
2023-02-14T21:08:06.860Z,74.20
2023-02-14T21:10:33.436Z,74.20
2023-02-14T21:13:00.106Z,74.10
2023-02-14T21:15:27.515Z,74.30
2023-02-14T21:17:54.235Z,74.30
2023-02-14T21:20:21.023Z,74.20
2023-02-14T21:22:47.580Z,74.30
2023-02-14T21:25:14.281Z,74.40
2023-02-14T21:27:41.268Z,74.40
2023-02-14T21:30:08.596Z,75.30
2023-02-14T21:32:35.196Z,74.50
2023-02-14T21:35:01.833Z,74.40
2023-02-14T21:37:28.388Z,74.50
2023-02-14T21:39:54.985Z,74.60
2023-02-14T21:42:21.666Z,74.80
2023-02-14T21:45:06.917Z,74.70
2023-02-14T21:47:37.676Z,74.80
2023-02-14T21:50:23.433Z,75.00
2023-02-14T21:52:50.004Z,75.00
2023-02-14T21:55:16.691Z,75.00
2023-02-14T21:57:43.379Z,75.00
2023-02-14T22:00:10.381Z,75.10
2023-02-14T22:02:38.734Z,75.40
2023-02-14T22:05:07.576Z,75.40
2023-02-14T22:07:35.085Z,75.40
2023-02-14T22:10:02.383Z,75.40
2023-02-14T22:12:29.701Z,75.40
2023-02-14T22:15:00.048Z,75.40
2023-02-14T22:17:27.351Z,75.40
2023-02-14T22:19:54.512Z,75.40
2023-02-14T22:22:21.444Z,75.40
2023-02-14T22:24:48.482Z,75.30
2023-02-14T22:27:16.068Z,75.50
2023-02-14T22:29:43.048Z,75.40
2023-02-14T22:32:09.978Z,75.50
2023-02-14T22:34:36.633Z,75.50
2023-02-14T22:37:03.238Z,75.40
2023-02-14T22:39:29.907Z,75.50
2023-02-14T22:41:56.626Z,75.50
2023-02-14T22:44:23.238Z,75.50
2023-02-14T22:46:50.209Z,75.50
2023-02-14T22:49:17.381Z,75.50
2023-02-14T22:51:44.350Z,75.60
2023-02-14T22:54:13.689Z,75.70
2023-02-14T22:56:43.370Z,75.70
2023-02-14T22:59:19.050Z,75.90
2023-02-14T23:01:46.124Z,76.00
2023-02-14T23:04:14.622Z,76.10
2023-02-14T23:06:41.350Z,76.20
2023-02-14T23:09:09.464Z,76.40
2023-02-14T23:11:37.843Z,76.50
2023-02-14T23:14:24.316Z,76.50
2023-02-14T23:17:09.930Z,76.60
2023-02-14T23:19:55.370Z,76.60
2023-02-14T23:22:26.346Z,76.70
2023-02-14T23:24:57.115Z,76.80
2023-02-14T23:27:31.727Z,76.80
2023-02-14T23:29:58.366Z,76.90
2023-02-14T23:32:24.990Z,77.00
2023-02-14T23:34:52.017Z,77.10
2023-02-14T23:37:19.825Z,77.20
2023-02-14T23:39:46.497Z,77.10
2023-02-14T23:42:14.780Z,77.10
2023-02-14T23:44:43.464Z,77.00
2023-02-14T23:47:10.637Z,77.10
2023-02-14T23:49:39.017Z,77.20
2023-02-14T23:52:07.966Z,77.10
2023-02-14T23:54:35.348Z,77.10
2023-02-14T23:57:03.377Z,77.10
2023-02-14T23:59:30.296Z,77.10
